La Grange, Arkansas
Current Conditions -  °F | °C
As of 7:35 AM on Friday 19 Dec 2014 (Local Time) from KUTA Reporting Station
Overcast Overcast  
Wind Chill: 36°   Ceiling: 2800
Heat Index: 41°   Visibility: 7mi
Dew Point: 37°   Wind: 8mph
Humidity: 87%   Direction: 30°NNE
Pressure: 30.25"   Gusts: NA
Location:  34.66°N, 90.73°W
Report Text: KUTA 191335Z AUTO 03007KT 7SM SCT022 BKN028 OVC034 05/03 A3025 RMK AO2
Loading
Personal Weather Stations






























Interactive Weather Map New forecast layout! Learn more

10-Day Weather Forecast

Advertisements
Track Severe Weather on mobile